Time;durP1;ratioP1;P1;durP2;ratioP2;P2;SDS_P1;SDS_P2;PMS_P1;PMS_P2;Temp;Humidity;BMP_temperature;BMP_pressure;BME280_temperature;BME280_humidity;BME280_pressure;Samples;Min_cycle;Max_cycle;Signal;HPM_P1;HPM_P2
2021/06/19 00:00:34;;;;;;;;;;;22.70;99.90;;;;;;5069883;28;19909;-60
2021/06/19 00:03:00;;;;;;;;;;;22.70;99.90;;;;;;5051584;28;19934;-59
2021/06/19 00:05:25;;;;;;;;;;;22.70;99.90;;;;;;5069814;28;19908;-60
2021/06/19 00:07:51;;;;;;;;;;;22.70;99.90;;;;;;5072036;28;20397;-61
2021/06/19 00:10:17;;;;;;;;;;;22.70;99.90;;;;;;5073629;28;19915;-60
2021/06/19 00:12:44;;;;;;;;;;;22.70;99.90;;;;;;5073537;28;20352;-60
2021/06/19 00:15:11;;;;;;;;;;;22.70;99.90;;;;;;5073356;28;19994;-61
2021/06/19 00:17:37;;;;;;;;;;;22.60;99.90;;;;;;5055462;28;19935;-60
2021/06/19 00:20:07;;;;;;;;;;;22.70;99.90;;;;;;5073199;28;19942;-59
2021/06/19 00:22:32;;;;;;;;;;;22.70;99.90;;;;;;5072873;28;20511;-60
2021/06/19 00:24:58;;;;;;;;;;;22.70;99.90;;;;;;5067559;28;19909;-60
2021/06/19 00:27:23;;;;;;;;;;;22.70;99.90;;;;;;5060462;28;19909;-61
2021/06/19 00:29:49;;;;;;;;;;;22.60;99.90;;;;;;5054443;28;19912;-59
2021/06/19 00:32:14;;;;;;;;;;;22.70;99.90;;;;;;5072587;28;19915;-61
2021/06/19 00:34:40;;;;;;;;;;;22.60;99.90;;;;;;5072962;28;19947;-58
2021/06/19 00:49:18;;;;;;;;;;;22.50;99.90;;;;;;5070854;28;19974;-60
2021/06/19 00:51:44;;;;;;;;;;;22.60;99.90;;;;;;5070383;28;19912;-59
2021/06/19 00:54:10;;;;;;;;;;;22.50;99.90;;;;;;5072383;28;19909;-60
2021/06/19 00:56:36;;;;;;;;;;;22.50;99.90;;;;;;5072339;28;19915;-59
2021/06/19 00:59:03;;;;;;;;;;;22.50;99.90;;;;;;5070890;28;20671;-60
2021/06/19 01:01:29;;;;;;;;;;;22.40;99.90;;;;;;5063852;28;20294;-61
2021/06/19 01:03:54;;;;;;;;;;;22.40;99.90;;;;;;5044109;28;19909;-58
2021/06/19 01:06:20;;;;;;;;;;;22.40;99.90;;;;;;5072294;28;20362;-61
2021/06/19 01:08:45;;;;;;;;;;;22.40;99.90;;;;;;5072261;28;19916;-60
2021/06/19 01:11:11;;;;;;;;;;;22.30;99.90;;;;;;5071959;28;19909;-60
2021/06/19 01:13:36;;;;;;;;;;;22.30;99.90;;;;;;5072571;28;19927;-60
2021/06/19 01:16:02;;;;;;;;;;;22.30;99.90;;;;;;5072354;28;19920;-60
2021/06/19 01:18:27;;;;;;;;;;;22.30;99.90;;;;;;5071002;28;19915;-59
2021/06/19 01:20:53;;;;;;;;;;;22.30;99.90;;;;;;5072435;28;19908;-60
2021/06/19 01:23:18;;;;;;;;;;;22.30;99.90;;;;;;5071922;28;20514;-60
2021/06/19 01:25:44;;;;;;;;;;;22.30;99.90;;;;;;5054029;28;19916;-59
2021/06/19 01:28:12;;;;;;;;;;;22.30;99.90;;;;;;5071459;28;19908;-61
2021/06/19 01:30:38;;;;;;;;;;;22.20;99.90;;;;;;5072167;28;19908;-61
2021/06/19 01:33:05;;;;;;;;;;;22.20;99.90;;;;;;5044743;28;19909;-60
2021/06/19 01:35:30;;;;;;;;;;;22.20;99.90;;;;;;5071546;28;19908;-59
2021/06/19 01:37:57;;;;;;;;;;;22.20;99.90;;;;;;5072003;28;19908;-60
2021/06/19 01:40:24;;;;;;;;;;;22.10;99.90;;;;;;5071800;28;19908;-61
2021/06/19 01:42:50;;;;;;;;;;;22.10;99.90;;;;;;5053704;28;19920;-59
2021/06/19 01:45:17;;;;;;;;;;;22.00;99.90;;;;;;5045393;28;19966;-59
2021/06/19 01:47:44;;;;;;;;;;;22.00;99.90;;;;;;5071815;28;19916;-59
2021/06/19 01:50:10;;;;;;;;;;;21.90;99.90;;;;;;5071571;28;20388;-59
2021/06/19 01:52:36;;;;;;;;;;;21.90;99.90;;;;;;5071506;28;20004;-61
2021/06/19 01:55:02;;;;;;;;;;;21.90;99.90;;;;;;5053212;28;19916;-60
2021/06/19 01:57:27;;;;;;;;;;;21.90;99.90;;;;;;5071425;28;19908;-58
2021/06/19 02:00:07;;;;;;;;;;;21.90;99.90;;;;;;5071667;28;19908;-60
2021/06/19 02:02:32;;;;;;;;;;;21.90;99.90;;;;;;5071269;28;19959;-60
2021/06/19 02:04:58;;;;;;;;;;;21.80;99.90;;;;;;5071302;28;19952;-60
2021/06/19 02:07:23;;;;;;;;;;;21.80;99.90;;;;;;5071043;28;20287;-59
2021/06/19 02:09:49;;;;;;;;;;;21.80;99.90;;;;;;5071160;28;19951;-58
2021/06/19 02:12:15;;;;;;;;;;;21.70;99.90;;;;;;5071306;28;19917;-60
2021/06/19 02:14:41;;;;;;;;;;;21.70;99.90;;;;;;5071013;28;19913;-59
2021/06/19 02:17:07;;;;;;;;;;;21.70;99.90;;;;;;5071325;28;20006;-59
2021/06/19 02:19:32;;;;;;;;;;;21.60;99.90;;;;;;5071101;28;19962;-60
2021/06/19 02:21:58;;;;;;;;;;;21.60;99.90;;;;;;5071115;28;19919;-60
2021/06/19 02:24:23;;;;;;;;;;;21.60;99.90;;;;;;5070918;28;20442;-58
2021/06/19 02:26:49;;;;;;;;;;;21.60;99.90;;;;;;5070893;28;19958;-60
2021/06/19 02:29:14;;;;;;;;;;;21.60;99.90;;;;;;5070888;28;19970;-61
2021/06/19 02:31:39;;;;;;;;;;;21.60;99.90;;;;;;5070608;28;19912;-60
2021/06/19 02:34:05;;;;;;;;;;;21.60;99.90;;;;;;5053139;28;19916;-59
2021/06/19 02:36:30;;;;;;;;;;;21.60;99.90;;;;;;5070527;28;20437;-60
2021/06/19 02:38:56;;;;;;;;;;;21.60;99.90;;;;;;5070965;28;19908;-59
2021/06/19 02:41:21;;;;;;;;;;;21.60;99.90;;;;;;5070503;28;19919;-60
2021/06/19 02:43:47;;;;;;;;;;;21.60;99.90;;;;;;5071175;28;19975;-61
2021/06/19 02:46:12;;;;;;;;;;;21.60;99.90;;;;;;5070544;28;19912;-60
2021/06/19 02:48:38;;;;;;;;;;;21.50;99.90;;;;;;5070630;28;19915;-61
2021/06/19 02:51:03;;;;;;;;;;;21.50;99.90;;;;;;5052638;28;19912;-59
2021/06/19 02:53:29;;;;;;;;;;;21.50;99.90;;;;;;5070784;28;19909;-59
2021/06/19 02:55:55;;;;;;;;;;;21.50;99.90;;;;;;5070199;28;19916;-60
2021/06/19 02:58:21;;;;;;;;;;;21.40;99.90;;;;;;5072641;28;19909;-60
2021/06/19 03:00:46;;;;;;;;;;;21.40;99.90;;;;;;5069880;28;19915;-61
2021/06/19 03:03:12;;;;;;;;;;;21.40;99.90;;;;;;5052340;28;20401;-60
2021/06/19 03:05:38;;;;;;;;;;;21.30;99.90;;;;;;5069996;28;19915;-60
2021/06/19 03:08:04;;;;;;;;;;;21.30;99.90;;;;;;5070627;28;19916;-59
2021/06/19 03:10:30;;;;;;;;;;;21.30;99.90;;;;;;5070401;28;20282;-61
2021/06/19 03:12:56;;;;;;;;;;;21.30;99.90;;;;;;5070350;28;20007;-59
2021/06/19 03:15:22;;;;;;;;;;;21.30;99.90;;;;;;5070248;28;19974;-60
2021/06/19 03:17:48;;;;;;;;;;;21.20;99.90;;;;;;5070251;28;20302;-59
2021/06/19 03:20:14;;;;;;;;;;;21.20;99.90;;;;;;5062101;28;19908;-59
2021/06/19 03:22:43;;;;;;;;;;;21.20;99.90;;;;;;5070115;28;19916;-58
2021/06/19 03:25:09;;;;;;;;;;;21.20;99.90;;;;;;5052070;28;19948;-59
2021/06/19 03:27:35;;;;;;;;;;;21.30;99.90;;;;;;5070206;28;19908;-58
2021/06/19 03:30:00;;;;;;;;;;;21.30;99.90;;;;;;5070092;28;19923;-59
2021/06/19 03:32:26;;;;;;;;;;;21.30;99.90;;;;;;5070075;28;19932;-57
2021/06/19 03:34:51;;;;;;;;;;;21.30;99.90;;;;;;5069678;28;19913;-59
2021/06/19 03:37:17;;;;;;;;;;;21.40;99.90;;;;;;5048229;28;19916;-59
2021/06/19 03:39:42;;;;;;;;;;;21.50;99.90;;;;;;5065893;28;20314;-60
2021/06/19 03:42:08;;;;;;;;;;;21.50;99.90;;;;;;5071526;28;19921;-61
2021/06/19 03:44:33;;;;;;;;;;;21.50;99.90;;;;;;5074015;28;19909;-60
2021/06/19 03:46:59;;;;;;;;;;;21.60;99.90;;;;;;5073770;28;19915;-60
2021/06/19 03:49:24;;;;;;;;;;;21.60;99.90;;;;;;5056074;28;19909;-59
2021/06/19 03:51:50;;;;;;;;;;;21.70;99.90;;;;;;5074153;28;19951;-60
2021/06/19 03:54:16;;;;;;;;;;;21.70;99.90;;;;;;5073839;28;19916;-61
2021/06/19 03:56:42;;;;;;;;;;;21.70;99.90;;;;;;5073438;28;19966;-60
2021/06/19 03:59:08;;;;;;;;;;;21.80;99.90;;;;;;5047728;28;19955;-60
2021/06/19 04:01:33;;;;;;;;;;;21.80;99.90;;;;;;5049261;28;20003;-60
2021/06/19 04:03:59;;;;;;;;;;;21.90;99.90;;;;;;5071702;28;20008;-60
2021/06/19 04:06:24;;;;;;;;;;;21.90;99.90;;;;;;5073484;28;19916;-59
2021/06/19 04:08:50;;;;;;;;;;;21.90;99.90;;;;;;5045728;28;19916;-60
2021/06/19 04:11:16;;;;;;;;;;;22.00;99.90;;;;;;5071029;28;19916;-58
2021/06/19 04:13:42;;;;;;;;;;;22.10;99.90;;;;;;5046273;28;20421;-60
2021/06/19 04:16:09;;;;;;;;;;;22.10;99.90;;;;;;5072437;28;19916;-60
2021/06/19 04:18:35;;;;;;;;;;;22.20;99.90;;;;;;5048998;28;19908;-60
2021/06/19 04:21:01;;;;;;;;;;;22.10;99.90;;;;;;5071516;28;19969;-60
2021/06/19 04:23:26;;;;;;;;;;;22.20;99.90;;;;;;5055054;28;19912;-60
2021/06/19 04:25:52;;;;;;;;;;;22.20;99.90;;;;;;5054918;28;19916;-60
2021/06/19 04:28:17;;;;;;;;;;;22.20;99.90;;;;;;5072970;28;19908;-60
2021/06/19 04:30:43;;;;;;;;;;;22.20;99.90;;;;;;5072748;28;19909;-58
2021/06/19 04:33:08;;;;;;;;;;;22.20;99.90;;;;;;5072761;28;20392;-61
2021/06/19 04:35:34;;;;;;;;;;;22.20;99.90;;;;;;5072891;28;19943;-61
2021/06/19 04:37:59;;;;;;;;;;;22.20;99.90;;;;;;5073018;28;19954;-62
2021/06/19 04:40:43;;;;;;;;;;;22.20;99.90;;;;;;5073208;28;20007;-60
2021/06/19 04:43:10;;;;;;;;;;;22.20;99.90;;;;;;5072997;28;20454;-62
2021/06/19 04:45:36;;;;;;;;;;;22.30;99.90;;;;;;5072628;28;19908;-61
2021/06/19 04:48:03;;;;;;;;;;;22.30;99.90;;;;;;5073049;28;19974;-61
2021/06/19 04:50:30;;;;;;;;;;;22.30;99.90;;;;;;5072771;28;19908;-61
2021/06/19 04:52:56;;;;;;;;;;;22.30;99.90;;;;;;5072033;28;19908;-61
2021/06/19 04:55:21;;;;;;;;;;;22.40;99.90;;;;;;5071594;28;19908;-61
2021/06/19 04:57:56;;;;;;;;;;;22.40;99.90;;;;;;5051159;28;19908;-60
2021/06/19 05:00:21;;;;;;;;;;;22.40;99.90;;;;;;5065665;28;19932;-61
2021/06/19 05:02:47;;;;;;;;;;;22.50;99.90;;;;;;5072241;28;19967;-62
2021/06/19 05:05:13;;;;;;;;;;;22.50;99.90;;;;;;5064202;28;19909;-61
2021/06/19 05:07:38;;;;;;;;;;;22.50;99.90;;;;;;5072427;28;19909;-63
2021/06/19 05:10:05;;;;;;;;;;;22.60;99.90;;;;;;5072580;28;20050;-61
2021/06/19 05:12:32;;;;;;;;;;;22.60;99.90;;;;;;5072388;28;19966;-61
2021/06/19 05:14:57;;;;;;;;;;;22.70;99.90;;;;;;5072096;28;19909;-61
2021/06/19 05:17:23;;;;;;;;;;;22.70;99.90;;;;;;5072462;28;19908;-62
2021/06/19 05:19:48;;;;;;;;;;;22.70;99.90;;;;;;5072186;28;20049;-62
2021/06/19 05:22:14;;;;;;;;;;;22.80;99.90;;;;;;5072142;28;19916;-61
2021/06/19 05:24:39;;;;;;;;;;;22.90;99.90;;;;;;5071634;28;20310;-60
2021/06/19 05:27:05;;;;;;;;;;;23.00;99.90;;;;;;5072106;28;19915;-60
2021/06/19 05:29:30;;;;;;;;;;;23.10;99.90;;;;;;5071916;28;20452;-60
2021/06/19 05:31:56;;;;;;;;;;;23.20;99.90;;;;;;5071891;28;19909;-61
2021/06/19 05:34:21;;;;;;;;;;;23.30;99.90;;;;;;5071918;28;20595;-60
2021/06/19 05:36:47;;;;;;;;;;;23.40;99.90;;;;;;5071402;28;19955;-60
2021/06/19 05:39:12;;;;;;;;;;;23.50;99.90;;;;;;5071612;28;19944;-61
2021/06/19 05:41:38;;;;;;;;;;;23.60;99.90;;;;;;5071848;28;20375;-61
2021/06/19 05:44:08;;;;;;;;;;;23.70;99.90;;;;;;5071764;28;19908;-61
2021/06/19 05:46:33;;;;;;;;;;;23.80;99.90;;;;;;5071428;28;19909;-61
2021/06/19 05:48:59;;;;;;;;;;;23.90;99.90;;;;;;5071696;28;19916;-61
2021/06/19 05:51:24;;;;;;;;;;;24.00;99.90;;;;;;5071614;28;20007;-61
2021/06/19 05:53:50;;;;;;;;;;;24.00;99.90;;;;;;5071587;28;19913;-61
2021/06/19 05:56:16;;;;;;;;;;;24.10;99.90;;;;;;5053282;28;19908;-62
2021/06/19 05:58:42;;;;;;;;;;;24.20;99.90;;;;;;5071728;28;19912;-61
2021/06/19 06:01:07;;;;;;;;;;;24.40;99.90;;;;;;5071232;28;19916;-61
2021/06/19 06:03:33;;;;;;;;;;;24.60;99.90;;;;;;5071512;28;19908;-62
2021/06/19 06:05:58;;;;;;;;;;;24.70;99.90;;;;;;5070641;28;19962;-60
2021/06/19 06:08:24;;;;;;;;;;;24.90;99.90;;;;;;5072029;28;19908;-60
2021/06/19 06:10:49;;;;;;;;;;;25.10;99.90;;;;;;5071731;28;20057;-59
2021/06/19 06:13:15;;;;;;;;;;;25.20;99.90;;;;;;5071146;28;19923;-61
2021/06/19 06:15:40;;;;;;;;;;;25.30;99.90;;;;;;5071110;28;19919;-61
2021/06/19 06:18:06;;;;;;;;;;;25.40;99.90;;;;;;5071163;28;19927;-61
2021/06/19 06:20:31;;;;;;;;;;;25.50;99.90;;;;;;5071461;28;20007;-61
2021/06/19 06:22:57;;;;;;;;;;;25.60;99.90;;;;;;5052645;28;19959;-61
2021/06/19 06:25:22;;;;;;;;;;;25.50;99.90;;;;;;5053001;28;19919;-60
2021/06/19 06:27:48;;;;;;;;;;;25.40;99.90;;;;;;5070876;28;20019;-61
2021/06/19 06:30:13;;;;;;;;;;;25.50;99.90;;;;;;5070978;28;19923;-61
2021/06/19 06:32:39;;;;;;;;;;;25.50;99.90;;;;;;5070792;28;19909;-61
2021/06/19 06:35:06;;;;;;;;;;;25.60;99.90;;;;;;5070338;28;19908;-61
2021/06/19 06:37:32;;;;;;;;;;;25.60;99.90;;;;;;5071149;28;19908;-61
2021/06/19 06:39:58;;;;;;;;;;;25.70;99.90;;;;;;5070828;28;19965;-60
2021/06/19 06:42:23;;;;;;;;;;;25.80;99.90;;;;;;5047723;28;19913;-59
2021/06/19 06:44:49;;;;;;;;;;;25.90;99.90;;;;;;5066387;28;21119;-58
2021/06/19 06:47:15;;;;;;;;;;;26.00;99.90;;;;;;5044362;28;19939;-61
2021/06/19 06:49:40;;;;;;;;;;;26.20;99.90;;;;;;5070585;28;19920;-62
2021/06/19 06:52:06;;;;;;;;;;;26.30;99.90;;;;;;5070255;28;19915;-61
2021/06/19 06:54:38;;;;;;;;;;;26.30;99.90;;;;;;5070344;28;19908;-62
2021/06/19 06:57:07;;;;;;;;;;;26.30;99.90;;;;;;5044039;28;20631;-62
2021/06/19 06:59:32;;;;;;;;;;;26.40;99.90;;;;;;5052486;28;20374;-62
2021/06/19 07:01:58;;;;;;;;;;;26.40;99.90;;;;;;5043943;28;19913;-60
2021/06/19 07:04:23;;;;;;;;;;;26.60;99.90;;;;;;5070041;28;19931;-61
2021/06/19 07:06:49;;;;;;;;;;;26.70;99.90;;;;;;5070434;28;20329;-59
2021/06/19 07:09:15;;;;;;;;;;;26.80;99.90;;;;;;5070439;28;20385;-61
2021/06/19 07:11:40;;;;;;;;;;;27.00;99.90;;;;;;5070105;28;19916;-61
2021/06/19 07:14:06;;;;;;;;;;;27.10;99.90;;;;;;5070241;28;20027;-60
2021/06/19 07:16:31;;;;;;;;;;;27.20;99.90;;;;;;5069458;28;19916;-61
2021/06/19 07:18:58;;;;;;;;;;;27.40;99.90;;;;;;5043793;28;19909;-59
2021/06/19 07:21:24;;;;;;;;;;;27.50;99.90;;;;;;5043680;28;19909;-61
2021/06/19 07:23:49;;;;;;;;;;;27.60;99.90;;;;;;5070218;28;20379;-61
2021/06/19 07:26:15;;;;;;;;;;;27.70;99.90;;;;;;5069723;28;19912;-64
2021/06/19 07:28:40;;;;;;;;;;;27.80;99.90;;;;;;5070213;28;19913;-60
2021/06/19 07:31:07;;;;;;;;;;;27.90;99.90;;;;;;5069798;28;20302;-61
2021/06/19 07:33:32;;;;;;;;;;;27.90;99.90;;;;;;5069840;28;19919;-60
2021/06/19 07:35:58;;;;;;;;;;;28.10;99.90;;;;;;5069890;28;19909;-61
2021/06/19 07:38:23;;;;;;;;;;;28.20;99.90;;;;;;5070598;28;19908;-63
2021/06/19 07:40:49;;;;;;;;;;;28.30;99.90;;;;;;5069900;28;19981;-61
2021/06/19 07:43:15;;;;;;;;;;;28.40;99.90;;;;;;5069834;28;19919;-61
2021/06/19 07:45:40;;;;;;;;;;;28.50;99.90;;;;;;5069884;28;20008;-61
2021/06/19 07:48:05;;;;;;;;;;;28.60;99.90;;;;;;5052537;28;20397;-61
2021/06/19 07:50:31;;;;;;;;;;;28.70;99.90;;;;;;5052075;28;19917;-60
2021/06/19 07:52:56;;;;;;;;;;;28.70;99.90;;;;;;5070022;28;19916;-62
2021/06/19 07:55:22;;;;;;;;;;;28.90;99.90;;;;;;5070479;28;19919;-62
2021/06/19 07:57:47;;;;;;;;;;;28.90;99.90;;;;;;5071732;28;20329;-62
2021/06/19 08:00:13;;;;;;;;;;;29.00;99.90;;;;;;5070956;28;19915;-62
2021/06/19 08:02:42;;;;;;;;;;;29.00;99.90;;;;;;5070146;28;19912;-61
2021/06/19 08:05:08;;;;;;;;;;;29.00;99.90;;;;;;5072460;28;19908;-62
2021/06/19 08:07:35;;;;;;;;;;;29.10;99.90;;;;;;5071288;28;19908;-61
2021/06/19 08:10:00;;;;;;;;;;;29.20;99.90;;;;;;5071233;28;19909;-62
2021/06/19 08:12:26;;;;;;;;;;;29.30;99.90;;;;;;5069719;28;20387;-61
2021/06/19 08:14:51;;;;;;;;;;;29.40;99.90;;;;;;5051782;28;19912;-61
2021/06/19 08:17:23;;;;;;;;;;;29.50;99.90;;;;;;5043759;28;19915;-62
2021/06/19 08:19:48;;;;;;;;;;;29.50;99.90;;;;;;5069505;28;19962;-61
2021/06/19 08:22:14;;;;;;;;;;;29.60;99.90;;;;;;5069867;28;19916;-61
2021/06/19 08:24:39;;;;;;;;;;;29.70;99.90;;;;;;5043275;28;20351;-60
2021/06/19 08:27:05;;;;;;;;;;;29.80;99.90;;;;;;5069728;28;20578;-61
2021/06/19 08:29:31;;;;;;;;;;;29.90;99.90;;;;;;5072996;28;19915;-61
2021/06/19 08:31:56;;;;;;;;;;;30.00;99.30;;;;;;5073021;28;19943;-60
2021/06/19 08:34:21;;;;;;;;;;;30.10;99.30;;;;;;5073166;28;19912;-61
2021/06/19 08:36:47;;;;;;;;;;;30.30;99.70;;;;;;5073078;28;19909;-61
2021/06/19 08:39:13;;;;;;;;;;;30.30;99.50;;;;;;5073655;28;20384;-59
2021/06/19 08:41:38;;;;;;;;;;;30.50;98.00;;;;;;5046706;28;19913;-61
2021/06/19 08:44:04;;;;;;;;;;;30.50;98.30;;;;;;5055077;28;19999;-60
2021/06/19 08:46:29;;;;;;;;;;;30.50;97.70;;;;;;5072130;28;19915;-60
2021/06/19 08:48:56;;;;;;;;;;;30.60;99.90;;;;;;5072760;28;19908;-60
2021/06/19 08:51:23;;;;;;;;;;;30.40;94.70;;;;;;5073216;28;20427;-61
2021/06/19 08:53:49;;;;;;;;;;;30.40;95.40;;;;;;5072749;28;19912;-61
2021/06/19 08:56:15;;;;;;;;;;;30.40;95.10;;;;;;5072543;28;20239;-60
2021/06/19 08:58:41;;;;;;;;;;;30.50;95.60;;;;;;5072928;28;19913;-60
2021/06/19 09:01:07;;;;;;;;;;;30.50;94.90;;;;;;5072501;28;19915;-61
2021/06/19 09:03:33;;;;;;;;;;;30.50;94.40;;;;;;5072892;28;19916;-61
2021/06/19 09:06:17;;;;;;;;;;;30.60;93.60;;;;;;5072681;28;19946;-58
2021/06/19 09:09:02;;;;;;;;;;;30.60;93.30;;;;;;5073020;28;19912;-61
2021/06/19 09:11:30;;;;;;;;;;;30.60;92.70;;;;;;5066217;28;19912;-61
2021/06/19 09:14:00;;;;;;;;;;;30.60;92.30;;;;;;5072348;28;19909;-60
2021/06/19 09:16:25;;;;;;;;;;;30.60;92.70;;;;;;5071993;28;20066;-61
2021/06/19 09:18:51;;;;;;;;;;;30.60;93.20;;;;;;5072553;28;19977;-60
2021/06/19 09:21:16;;;;;;;;;;;30.40;93.10;;;;;;5072524;28;19908;-61
2021/06/19 09:23:43;;;;;;;;;;;30.40;94.80;;;;;;5054401;28;19912;-60
2021/06/19 09:26:09;;;;;;;;;;;30.50;96.30;;;;;;5053890;28;19919;-59
2021/06/19 09:28:53;;;;;;;;;;;30.60;93.40;;;;;;5072664;28;19908;-62
2021/06/19 09:31:38;;;;;;;;;;;30.60;96.00;;;;;;5068369;28;20391;-60
2021/06/19 09:34:05;;;;;;;;;;;30.70;92.50;;;;;;5071933;28;19908;-61
2021/06/19 09:36:38;;;;;;;;;;;30.80;93.00;;;;;;5045499;28;19916;-60
2021/06/19 09:39:04;;;;;;;;;;;30.80;92.90;;;;;;5072244;28;19908;-60
2021/06/19 09:41:37;;;;;;;;;;;30.80;91.50;;;;;;5071442;28;19909;-58
2021/06/19 09:44:02;;;;;;;;;;;30.80;91.00;;;;;;5071984;28;20539;-59
2021/06/19 09:46:28;;;;;;;;;;;30.90;91.50;;;;;;5071660;28;19915;-60
2021/06/19 09:48:54;;;;;;;;;;;30.70;91.60;;;;;;5071619;28;19917;-62
2021/06/19 09:51:23;;;;;;;;;;;30.70;92.00;;;;;;5071796;28;19991;-61
2021/06/19 09:53:50;;;;;;;;;;;30.60;91.10;;;;;;5071695;28;19916;-60
2021/06/19 09:56:17;;;;;;;;;;;30.60;90.80;;;;;;5049590;28;19959;-62
2021/06/19 09:58:44;;;;;;;;;;;30.80;92.90;;;;;;5067719;28;19913;-62
2021/06/19 10:01:11;;;;;;;;;;;30.90;94.40;;;;;;5071446;28;19909;-60
2021/06/19 10:04:06;;;;;;;;;;;31.10;90.50;;;;;;5071401;28;19912;-59
2021/06/19 10:06:32;;;;;;;;;;;31.20;90.40;;;;;;5052734;28;19912;-59
2021/06/19 10:08:59;;;;;;;;;;;31.20;91.00;;;;;;5071171;28;20014;-57
2021/06/19 10:11:26;;;;;;;;;;;31.20;90.80;;;;;;5071003;28;19966;-59
2021/06/19 10:13:52;;;;;;;;;;;31.10;91.00;;;;;;5071378;28;21167;-59
2021/06/19 10:16:18;;;;;;;;;;;31.10;90.40;;;;;;5070675;28;20283;-58
2021/06/19 10:18:44;;;;;;;;;;;31.20;89.50;;;;;;5071337;28;19915;-59
2021/06/19 10:21:10;;;;;;;;;;;31.10;89.80;;;;;;5070845;28;19908;-60
2021/06/19 10:23:36;;;;;;;;;;;31.20;84.70;;;;;;5071159;28;19966;-58
2021/06/19 10:26:02;;;;;;;;;;;31.30;86.90;;;;;;5070624;28;20324;-59
2021/06/19 10:28:29;;;;;;;;;;;31.30;85.10;;;;;;5071351;28;19908;-58
2021/06/19 10:30:55;;;;;;;;;;;31.40;90.20;;;;;;5044760;28;19931;-60
2021/06/19 10:33:27;;;;;;;;;;;31.60;85.70;;;;;;5071078;28;19909;-60
2021/06/19 10:35:53;;;;;;;;;;;31.70;84.40;;;;;;5071576;28;20497;-60
2021/06/19 10:38:19;;;;;;;;;;;31.70;84.30;;;;;;5071270;28;19912;-59
2021/06/19 10:40:58;;;;;;;;;;;31.60;83.10;;;;;;5071313;28;19956;-60
2021/06/19 10:43:24;;;;;;;;;;;31.30;85.60;;;;;;5068478;28;19916;-61
2021/06/19 10:45:50;;;;;;;;;;;31.20;85.20;;;;;;5083351;22;19925;-54
2021/06/19 10:48:16;;;;;;;;;;;31.30;85.60;;;;;;5062542;28;19908;-55
2021/06/19 10:50:43;;;;;;;;;;;31.20;90.00;;;;;;5061053;28;19913;-56
2021/06/19 10:53:14;;;;;;;;;;;31.20;83.00;;;;;;5061672;28;20369;-59
2021/06/19 10:55:43;;;;;;;;;;;31.00;87.40;;;;;;5061834;28;19909;-49
2021/06/19 10:58:19;;;;;;;;;;;30.70;86.00;;;;;;5061649;28;19921;-55
2021/06/19 11:00:45;;;;;;;;;;;30.80;85.90;;;;;;5062390;28;20370;-58
2021/06/19 11:03:11;;;;;;;;;;;30.90;86.00;;;;;;5062111;28;19916;-55
2021/06/19 11:05:43;;;;;;;;;;;31.00;83.40;;;;;;5061095;28;19913;-58
2021/06/19 11:08:09;;;;;;;;;;;31.20;87.00;;;;;;5061470;28;20012;-53
2021/06/19 11:10:55;;;;;;;;;;;31.20;82.80;;;;;;5062232;28;19952;-55
2021/06/19 11:13:33;;;;;;;;;;;31.30;84.90;;;;;;5062069;28;19908;-58
2021/06/19 11:16:05;;;;;;;;;;;31.70;84.30;;;;;;5061303;28;19954;-53
2021/06/19 11:18:52;;;;;;;;;;;31.70;80.40;;;;;;5062096;28;19908;-57
2021/06/19 11:21:26;;;;;;;;;;;31.80;82.60;;;;;;5056196;28;19912;-56
2021/06/19 11:24:01;;;;;;;;;;;31.80;83.10;;;;;;5064899;28;19913;-54
2021/06/19 11:26:56;;;;;;;;;;;31.80;81.20;;;;;;5058035;28;19913;-50
2021/06/19 11:29:37;;;;;;;;;;;31.70;80.50;;;;;;5064852;28;19971;-55
2021/06/19 11:32:20;;;;;;;;;;;31.40;81.90;;;;;;5059008;28;19946;-56
2021/06/19 11:34:45;;;;;;;;;;;31.40;79.00;;;;;;5061882;28;20181;-55
2021/06/19 11:37:11;;;;;;;;;;;31.50;81.00;;;;;;5061884;28;20476;-55
2021/06/19 11:39:37;;;;;;;;;;;31.70;80.70;;;;;;5061420;28;19909;-58
2021/06/19 11:42:03;;;;;;;;;;;31.50;79.20;;;;;;5060121;28;19956;-53
2021/06/19 11:44:35;;;;;;;;;;;31.50;77.50;;;;;;5061435;28;19912;-52
2021/06/19 11:47:02;;;;;;;;;;;31.40;81.50;;;;;;5061776;28;19912;-58
2021/06/19 11:49:32;;;;;;;;;;;31.40;80.60;;;;;;5061838;28;19909;-53
2021/06/19 11:51:58;;;;;;;;;;;31.70;78.60;;;;;;5060331;28;20004;-55
2021/06/19 11:54:25;;;;;;;;;;;31.70;77.20;;;;;;5037246;28;19913;-50
2021/06/19 11:56:51;;;;;;;;;;;31.70;76.80;;;;;;5060815;28;19908;-56
2021/06/19 11:59:16;;;;;;;;;;;31.80;75.60;;;;;;5061698;28;20343;-60
2021/06/19 12:01:43;;;;;;;;;;;31.90;78.40;;;;;;5061632;28;19916;-50
2021/06/19 12:04:16;;;;;;;;;;;31.90;76.60;;;;;;5061675;28;19913;-56
2021/06/19 12:06:43;;;;;;;;;;;32.00;78.60;;;;;;5067408;28;20433;-56
2021/06/19 12:09:10;;;;;;;;;;;32.10;79.70;;;;;;5062312;28;19916;-53
2021/06/19 12:11:36;;;;;;;;;;;32.20;77.00;;;;;;5067433;28;19930;-53
2021/06/19 12:14:14;;;;;;;;;;;32.30;74.10;;;;;;5045251;28;19909;-53
2021/06/19 12:16:40;;;;;;;;;;;32.00;73.20;;;;;;5063920;28;19938;-51
2021/06/19 12:19:05;;;;;;;;;;;32.20;77.00;;;;;;5062628;28;20370;-53
2021/06/19 12:21:35;;;;;;;;;;;32.20;77.50;;;;;;5061507;28;19908;-49
2021/06/19 12:24:01;;;;;;;;;;;32.30;75.60;;;;;;5068178;28;19915;-54
2021/06/19 12:26:26;;;;;;;;;;;32.30;79.20;;;;;;5061138;28;20342;-51
2021/06/19 12:28:52;;;;;;;;;;;32.20;72.30;;;;;;5068783;28;19912;-52
2021/06/19 12:31:21;;;;;;;;;;;32.20;72.80;;;;;;5061387;28;19991;-56
2021/06/19 12:33:54;;;;;;;;;;;32.10;71.70;;;;;;5069337;28;19908;-51
2021/06/19 12:36:23;;;;;;;;;;;32.20;72.60;;;;;;5056592;28;19920;-48
2021/06/19 12:38:49;;;;;;;;;;;32.10;69.90;;;;;;5061267;28;20286;-54
2021/06/19 12:41:14;;;;;;;;;;;32.10;69.70;;;;;;5067428;28;19909;-51
2021/06/19 12:43:47;;;;;;;;;;;32.10;72.30;;;;;;5042870;28;19916;-53
2021/06/19 12:46:17;;;;;;;;;;;32.00;69.00;;;;;;5040592;28;20330;-50
2021/06/19 12:48:42;;;;;;;;;;;32.20;72.30;;;;;;5063048;28;19916;-57
2021/06/19 12:51:19;;;;;;;;;;;32.30;69.10;;;;;;5063764;28;19942;-49
2021/06/19 12:53:45;;;;;;;;;;;32.30;69.90;;;;;;5057058;28;19985;-54
2021/06/19 12:56:11;;;;;;;;;;;32.40;68.60;;;;;;5065048;28;20414;-55
2021/06/19 12:58:41;;;;;;;;;;;32.30;70.70;;;;;;5042782;28;19908;-50
2021/06/19 13:01:17;;;;;;;;;;;32.50;70.50;;;;;;5063328;28;19989;-54
2021/06/19 13:03:45;;;;;;;;;;;32.50;69.20;;;;;;5064542;28;20129;-54
2021/06/19 13:06:16;;;;;;;;;;;32.60;70.00;;;;;;5060921;28;19917;-53
2021/06/19 13:08:52;;;;;;;;;;;32.50;66.50;;;;;;5066203;28;20313;-51
2021/06/19 13:11:19;;;;;;;;;;;32.30;67.20;;;;;;5057603;28;19917;-53
2021/06/19 13:13:45;;;;;;;;;;;32.30;69.10;;;;;;5049093;28;19947;-56
2021/06/19 13:16:12;;;;;;;;;;;32.20;66.60;;;;;;5059779;28;19916;-53
2021/06/19 13:18:38;;;;;;;;;;;32.10;69.10;;;;;;5067394;28;19909;-48
2021/06/19 13:21:08;;;;;;;;;;;32.20;71.10;;;;;;5064604;28;19912;-53
2021/06/19 13:23:34;;;;;;;;;;;32.40;70.90;;;;;;5060170;28;19940;-54
2021/06/19 13:26:02;;;;;;;;;;;32.20;68.90;;;;;;5066389;28;19912;-52
2021/06/19 13:28:46;;;;;;;;;;;32.30;69.80;;;;;;5060370;28;20000;-57
2021/06/19 13:31:20;;;;;;;;;;;32.40;67.60;;;;;;5068200;28;19996;-56
2021/06/19 13:33:49;;;;;;;;;;;32.30;66.70;;;;;;5060323;28;20011;-53
2021/06/19 13:36:15;;;;;;;;;;;32.40;65.80;;;;;;5047643;28;19997;-52
2021/06/19 13:38:47;;;;;;;;;;;32.50;66.80;;;;;;5062383;28;19955;-54
2021/06/19 13:41:20;;;;;;;;;;;32.30;65.60;;;;;;5048355;28;19963;-55
2021/06/19 13:43:46;;;;;;;;;;;32.60;67.60;;;;;;5065944;28;19913;-55
2021/06/19 13:46:11;;;;;;;;;;;32.40;67.30;;;;;;5063105;28;20485;-54
2021/06/19 13:48:36;;;;;;;;;;;32.20;66.80;;;;;;5064235;28;19909;-55
2021/06/19 13:51:02;;;;;;;;;;;32.20;69.40;;;;;;5062071;28;19912;-57
2021/06/19 13:53:27;;;;;;;;;;;32.40;67.30;;;;;;5063513;28;20390;-52
2021/06/19 13:55:53;;;;;;;;;;;32.50;66.40;;;;;;5060430;28;19912;-52
2021/06/19 13:58:18;;;;;;;;;;;32.60;67.40;;;;;;5063342;28;20030;-56
2021/06/19 14:00:44;;;;;;;;;;;32.70;66.40;;;;;;5062796;28;19948;-49
2021/06/19 14:03:09;;;;;;;;;;;32.80;67.10;;;;;;5062929;28;19913;-50
2021/06/19 14:05:35;;;;;;;;;;;32.90;63.80;;;;;;5062753;28;19916;-56
2021/06/19 14:08:00;;;;;;;;;;;32.70;66.50;;;;;;5043748;28;20340;-50
2021/06/19 14:10:26;;;;;;;;;;;32.50;64.70;;;;;;5063118;28;19909;-50
2021/06/19 14:12:51;;;;;;;;;;;32.50;64.80;;;;;;5061887;28;19909;-53
2021/06/19 14:15:17;;;;;;;;;;;32.40;64.80;;;;;;5044790;28;19915;-55
2021/06/19 14:17:42;;;;;;;;;;;32.30;65.70;;;;;;5063208;28;19966;-50
2021/06/19 14:20:08;;;;;;;;;;;32.30;67.20;;;;;;5062317;28;20294;-53
2021/06/19 14:22:33;;;;;;;;;;;32.50;66.20;;;;;;5062791;28;19923;-53
2021/06/19 14:24:59;;;;;;;;;;;32.60;67.10;;;;;;5060346;28;19909;-54
2021/06/19 14:27:25;;;;;;;;;;;32.60;66.50;;;;;;5044767;28;20007;-53